Brunswick Golden Isles Airport
KBQK : rendu visible

Aérodrome :











RETROUVEZ-NOUS SUR...

 
LOGIN :

S'inscrire | Disclaimer

   EN    FR    IT 

 









Légende :    VFR   VFR Marginal   IFR   IFR Intensif   IFR Très Intensif
Visi : 
Plafond : 
>= 8 km
>= 3000ft
5 à 8 km
1000 à 3000 ft
1500m à 5 km
500 à 1000 ft
800 à 1500m
200 à 500 ft
< 800m
< 200 ft
Symboles :   Orages  Brouillard  Fortes neiges  Fortes précipitations  Vent > 20 kt






- Altitude de l'aérodrome : 26 ft
- Code IATA : BQK


KBQK - Brunswick Golden Isles

DERNIER METAR :
  • 290935Z AUTO 21004KT 10SM CLR 19/18 A3005 RMK AO2 T01880179

METARs EXPIRÉS :
  • 290915Z AUTO 22005KT 10SM CLR 19/17 A3004 RMK AO2 T01860173
  • 290855Z AUTO 22005KT 10SM CLR 19/17 A3003 RMK AO2 T01860173
  • 290835Z AUTO 22006KT 10SM CLR 19/17 A3004 RMK AO2 T01900172
  • 290815Z AUTO 25006KT 10SM CLR 19/17 A3004 RMK AO2 T01880172
  • 290755Z AUTO 23005KT 10SM CLR 19/18 A3004 RMK AO2 T01890179
  • 290735Z AUTO 24005KT 10SM CLR 19/18 A3004 RMK AO2 T01860178
  • 290715Z AUTO 25004KT 10SM CLR 18/18 A3004 RMK AO2 T01830179
  • 290655Z AUTO 21003KT 7SM CLR 19/19 A3003 RMK AO2 T01900185
  • 290635Z AUTO 17003KT 10SM CLR 19/19 A3004 RMK AO2 T01950191

TAF N/A



MET'MAP, la Météo Aéronautique d'un coup d'oeil ! - Copyright ORBIFLY Décembre 2007 - Disclaimer

ORBIFLY MET'MAP TEAM :

Programmation & Développement : Alexandra Zaïnal
Sur une idée originale de : Baudouin d'Aumeries
Assistance à la programmation : Marc-Olivier Méhu
Soutien technique & logistique : Manuel Goepfert

Contact : metmap@orbifly.com




SOURCES & CREDITS :

   NOAA       Earth
Advisory